Time;durP1;ratioP1;P1;durP2;ratioP2;P2;SDS_P1;SDS_P2;PMS_P1;PMS_P2;Temp;Humidity;BMP_temperature;BMP_pressure;BME280_temperature;BME280_humidity;BME280_pressure;Samples;Min_cycle;Max_cycle;Signal;HPM_P1;HPM_P2
2022/08/03 00:01:34;;;;;;;;;;;;;;;;;;5015285;28;20357;-32
2022/08/03 00:04:01;;;;;;;;;;;;;;;;;;5015030;28;20391;-34
2022/08/03 00:06:26;;;;;;;;;;;;;;;;;;5015779;28;19913;-31
2022/08/03 00:08:52;;;;;;;;;;;;;;;;;;5015192;28;20360;-33
2022/08/03 00:11:18;;;;;;;;;;;;;;;;;;5015185;28;20324;-32
2022/08/03 00:13:44;;;;;;;;;;;;;;;;;;5015070;28;19914;-32
2022/08/03 00:16:12;;;;;;;;;;;;;;;;;;5015132;28;19909;-32
2022/08/03 00:18:38;;;;;;;;;;;;;;;;;;5015080;28;20020;-33
2022/08/03 00:21:03;;;;;;;;;;;;;;;;;;5015375;28;19930;-31
2022/08/03 00:23:29;;;;;;;;;;;;;;;;;;5015090;28;19918;-32
2022/08/03 00:25:55;;;;;;;;;;;;;;;;;;5015255;28;19924;-32
2022/08/03 00:28:21;;;;;;;;;;;;;;;;;;5014079;28;20341;-32
2022/08/03 00:30:47;;;;;;;;;;;;;;;;;;5015035;28;19914;-32
2022/08/03 00:33:13;;;;;;;;;;;;;;;;;;5015146;28;19974;-32
2022/08/03 00:35:39;;;;;;;;;;;;;;;;;;5014950;28;20329;-36
2022/08/03 00:38:05;;;;;;;;;;;;;;;;;;5015105;28;19940;-34
2022/08/03 00:40:31;;;;;;;;;;;;;;;;;;5014905;28;19917;-34
2022/08/03 00:42:57;;;;;;;;;;;;;;;;;;5014785;28;19913;-34
2022/08/03 00:45:23;;;;;;;;;;;;;;;;;;5015434;28;19928;-32
2022/08/03 00:47:49;;;;;;;;;;;;;;;;;;5015410;28;20008;-32
2022/08/03 00:50:15;;;;;;;;;;;;;;;;;;5015392;28;20297;-35
2022/08/03 00:52:41;;;;;;;;;;;;;;;;;;5014688;28;19914;-31
2022/08/03 00:55:07;;;;;;;;;;;;;;;;;;5014749;28;19910;-32
2022/08/03 00:57:34;;;;;;;;;;;;;;;;;;5016776;28;19928;-32
2022/08/03 00:59:59;;;;;;;;;;;;;;;;;;5018850;28;19920;-34
2022/08/03 01:02:26;;;;;;;;;;;;;;;;;;5018414;28;19989;-34
2022/08/03 01:04:52;;;;;;;;;;;;;;;;;;5018492;28;19918;-34
2022/08/03 01:07:17;;;;;;;;;;;;;;;;;;5018714;28;20296;-34
2022/08/03 01:09:43;;;;;;;;;;;;;;;;;;5018158;28;19937;-32
2022/08/03 01:12:09;;;;;;;;;;;;;;;;;;5017995;28;20063;-33
2022/08/03 01:14:35;;;;;;;;;;;;;;;;;;5017963;28;19933;-33
2022/08/03 01:17:01;;;;;;;;;;;;;;;;;;5018167;28;19917;-37
2022/08/03 01:19:27;;;;;;;;;;;;;;;;;;5018174;28;20000;-32
2022/08/03 01:21:53;;;;;;;;;;;;;;;;;;5018105;28;19917;-32
2022/08/03 01:24:19;;;;;;;;;;;;;;;;;;5018150;28;19920;-32
2022/08/03 01:26:45;;;;;;;;;;;;;;;;;;5018041;28;20004;-31
2022/08/03 01:29:11;;;;;;;;;;;;;;;;;;5017814;28;20363;-33
2022/08/03 01:31:37;;;;;;;;;;;;;;;;;;5017750;28;20396;-33
2022/08/03 01:34:03;;;;;;;;;;;;;;;;;;5017879;28;19913;-32
2022/08/03 01:36:29;;;;;;;;;;;;;;;;;;5017538;28;19922;-33
2022/08/03 01:38:55;;;;;;;;;;;;;;;;;;5017809;28;19916;-32
2022/08/03 01:41:21;;;;;;;;;;;;;;;;;;5018037;28;19913;-33
2022/08/03 01:43:48;;;;;;;;;;;;;;;;;;5017698;28;19953;-34
2022/08/03 01:46:14;;;;;;;;;;;;;;;;;;5017675;28;19921;-33
2022/08/03 01:48:40;;;;;;;;;;;;;;;;;;5017331;28;19991;-31
2022/08/03 01:51:06;;;;;;;;;;;;;;;;;;5017351;28;19914;-33
2022/08/03 01:53:32;;;;;;;;;;;;;;;;;;5017233;28;20266;-32
2022/08/03 01:55:58;;;;;;;;;;;;;;;;;;5017760;28;20048;-33
2022/08/03 01:58:24;;;;;;;;;;;;;;;;;;5017186;28;19924;-31
2022/08/03 02:00:50;;;;;;;;;;;;;;;;;;5017116;28;19914;-31
2022/08/03 02:03:16;;;;;;;;;;;;;;;;;;5016794;28;19921;-31
2022/08/03 02:05:42;;;;;;;;;;;;;;;;;;5017297;28;19916;-32
2022/08/03 02:08:08;;;;;;;;;;;;;;;;;;5016953;28;19914;-34
2022/08/03 02:10:34;;;;;;;;;;;;;;;;;;5016942;28;19917;-33
2022/08/03 02:13:00;;;;;;;;;;;;;;;;;;5017108;28;19928;-34
2022/08/03 02:15:26;;;;;;;;;;;;;;;;;;5016840;28;19914;-33
2022/08/03 02:17:52;;;;;;;;;;;;;;;;;;5016718;28;19917;-32
2022/08/03 02:20:18;;;;;;;;;;;;;;;;;;5017107;28;20320;-32
2022/08/03 02:22:44;;;;;;;;;;;;;;;;;;5016822;28;19925;-32
2022/08/03 02:25:10;;;;;;;;;;;;;;;;;;5016619;28;19909;-32
2022/08/03 02:27:36;;;;;;;;;;;;;;;;;;5016618;28;20265;-33
2022/08/03 02:30:02;;;;;;;;;;;;;;;;;;5016842;28;19909;-32
2022/08/03 02:32:29;;;;;;;;;;;;;;;;;;5016757;28;19924;-33
2022/08/03 02:34:55;;;;;;;;;;;;;;;;;;5016440;28;19910;-32
2022/08/03 02:37:21;;;;;;;;;;;;;;;;;;5016386;28;20313;-32
2022/08/03 02:39:47;;;;;;;;;;;;;;;;;;5016319;28;19948;-32
2022/08/03 02:42:13;;;;;;;;;;;;;;;;;;5016305;28;19963;-31
2022/08/03 02:44:40;;;;;;;;;;;;;;;;;;5016327;28;19949;-31
2022/08/03 02:47:06;;;;;;;;;;;;;;;;;;5016366;28;19914;-33
2022/08/03 02:49:32;;;;;;;;;;;;;;;;;;5016832;28;20041;-32
2022/08/03 02:51:58;;;;;;;;;;;;;;;;;;5016168;28;20344;-35
2022/08/03 02:54:24;;;;;;;;;;;;;;;;;;5016195;28;19924;-31
2022/08/03 02:56:50;;;;;;;;;;;;;;;;;;5016054;28;19914;-32
2022/08/03 02:59:16;;;;;;;;;;;;;;;;;;5016611;28;19940;-35
2022/08/03 03:01:42;;;;;;;;;;;;;;;;;;5016029;28;19909;-34
2022/08/03 03:04:08;;;;;;;;;;;;;;;;;;5015908;28;20329;-31
2022/08/03 03:06:34;;;;;;;;;;;;;;;;;;5016003;28;19933;-31
2022/08/03 03:09:00;;;;;;;;;;;;;;;;;;5016193;28;19913;-32
2022/08/03 03:11:26;;;;;;;;;;;;;;;;;;5015877;28;19909;-35
2022/08/03 03:13:52;;;;;;;;;;;;;;;;;;5015805;28;19956;-32
2022/08/03 03:16:18;;;;;;;;;;;;;;;;;;5016006;28;20012;-34
2022/08/03 03:18:44;;;;;;;;;;;;;;;;;;5016037;28;19924;-33
2022/08/03 03:21:10;;;;;;;;;;;;;;;;;;5015864;28;19924;-33
2022/08/03 03:23:35;;;;;;;;;;;;;;;;;;5015683;28;19914;-33
2022/08/03 03:26:02;;;;;;;;;;;;;;;;;;5015712;28;19913;-33
2022/08/03 03:28:27;;;;;;;;;;;;;;;;;;5015603;28;20001;-32
2022/08/03 03:30:53;;;;;;;;;;;;;;;;;;5015661;28;19953;-34
2022/08/03 03:33:20;;;;;;;;;;;;;;;;;;5015474;28;19920;-32
2022/08/03 03:35:46;;;;;;;;;;;;;;;;;;5015575;28;19918;-33
2022/08/03 03:38:12;;;;;;;;;;;;;;;;;;5015692;28;19924;-33
2022/08/03 03:40:38;;;;;;;;;;;;;;;;;;5015719;28;19913;-32
2022/08/03 03:43:04;;;;;;;;;;;;;;;;;;5015380;28;19913;-33
2022/08/03 03:45:30;;;;;;;;;;;;;;;;;;5015421;28;19913;-32
2022/08/03 03:47:56;;;;;;;;;;;;;;;;;;5015272;28;20289;-32
2022/08/03 03:50:22;;;;;;;;;;;;;;;;;;5015629;28;19967;-32
2022/08/03 03:52:48;;;;;;;;;;;;;;;;;;5015269;28;19914;-34
2022/08/03 03:55:14;;;;;;;;;;;;;;;;;;5015287;28;19917;-32
2022/08/03 03:57:40;;;;;;;;;;;;;;;;;;5015712;28;19914;-35
2022/08/03 04:00:06;;;;;;;;;;;;;;;;;;5015476;28;19968;-33
2022/08/03 04:02:32;;;;;;;;;;;;;;;;;;5015167;28;19929;-34
2022/08/03 04:13:12;;;;;;;;;;;;;;;;;;5015282;28;20356;-32
2022/08/03 04:15:38;;;;;;;;;;;;;;;;;;5015019;28;19917;-34
2022/08/03 04:18:04;;;;;;;;;;;;;;;;;;5015177;28;19917;-33
2022/08/03 04:20:30;;;;;;;;;;;;;;;;;;5014969;28;19914;-32
2022/08/03 04:22:56;;;;;;;;;;;;;;;;;;5015233;28;19910;-33
2022/08/03 04:25:22;;;;;;;;;;;;;;;;;;5015097;28;19952;-32
2022/08/03 04:27:48;;;;;;;;;;;;;;;;;;5015248;28;19986;-34
2022/08/03 04:30:14;;;;;;;;;;;;;;;;;;5015145;28;19920;-35
2022/08/03 04:32:41;;;;;;;;;;;;;;;;;;5017308;28;19914;-33
2022/08/03 04:35:07;;;;;;;;;;;;;;;;;;5018686;28;19909;-32
2022/08/03 04:37:33;;;;;;;;;;;;;;;;;;5018591;28;19917;-32
2022/08/03 04:39:59;;;;;;;;;;;;;;;;;;5018892;28;19957;-32
2022/08/03 04:42:25;;;;;;;;;;;;;;;;;;5018738;28;20303;-32
2022/08/03 04:44:51;;;;;;;;;;;;;;;;;;5018864;28;19909;-33
2022/08/03 04:47:17;;;;;;;;;;;;;;;;;;5018693;28;19917;-32
2022/08/03 04:49:43;;;;;;;;;;;;;;;;;;5018636;28;19917;-33
2022/08/03 04:52:08;;;;;;;;;;;;;;;;;;5018397;28;19909;-32
2022/08/03 04:54:34;;;;;;;;;;;;;;;;;;5017438;28;19940;-33
2022/08/03 04:57:00;;;;;;;;;;;;;;;;;;5018192;28;19979;-32
2022/08/03 04:59:26;;;;;;;;;;;;;;;;;;5018355;28;19914;-31
2022/08/03 05:01:52;;;;;;;;;;;;;;;;;;5018188;28;19917;-32
2022/08/03 05:04:19;;;;;;;;;;;;;;;;;;5017923;28;19948;-32
2022/08/03 05:06:45;;;;;;;;;;;;;;;;;;5018475;28;19910;-34
2022/08/03 05:09:11;;;;;;;;;;;;;;;;;;5018150;28;19913;-33
2022/08/03 05:11:37;;;;;;;;;;;;;;;;;;5018100;28;19933;-33
2022/08/03 05:14:03;;;;;;;;;;;;;;;;;;5018080;28;20368;-32
2022/08/03 05:16:29;;;;;;;;;;;;;;;;;;5017871;28;19921;-31
2022/08/03 05:18:55;;;;;;;;;;;;;;;;;;5018200;28;19918;-36
2022/08/03 05:21:21;;;;;;;;;;;;;;;;;;5017011;28;19914;-32
2022/08/03 05:23:47;;;;;;;;;;;;;;;;;;5017718;28;19925;-33
2022/08/03 05:26:13;;;;;;;;;;;;;;;;;;5018160;28;19913;-32
2022/08/03 05:28:38;;;;;;;;;;;;;;;;;;5017758;28;19914;-34
2022/08/03 05:31:04;;;;;;;;;;;;;;;;;;5017724;28;20372;-34
2022/08/03 05:33:30;;;;;;;;;;;;;;;;;;5017559;28;19917;-32
2022/08/03 05:35:56;;;;;;;;;;;;;;;;;;5018121;28;19920;-32
2022/08/03 05:38:23;;;;;;;;;;;;;;;;;;5017416;28;19917;-32
2022/08/03 05:40:49;;;;;;;;;;;;;;;;;;5017827;28;20284;-34
2022/08/03 05:43:15;;;;;;;;;;;;;;;;;;5017021;28;19920;-32
2022/08/03 05:45:42;;;;;;;;;;;;;;;;;;5017447;28;19959;-34
2022/08/03 05:48:08;;;;;;;;;;;;;;;;;;5017584;28;19914;-34
2022/08/03 05:50:35;;;;;;;;;;;;;;;;;;5017187;28;19940;-34
2022/08/03 05:53:01;;;;;;;;;;;;;;;;;;5017467;28;20009;-33
2022/08/03 05:55:27;;;;;;;;;;;;;;;;;;5017314;28;19949;-32
2022/08/03 05:57:53;;;;;;;;;;;;;;;;;;5017130;28;19956;-32
2022/08/03 06:00:19;;;;;;;;;;;;;;;;;;5016249;28;19925;-32
2022/08/03 06:02:45;;;;;;;;;;;;;;;;;;5017000;28;19921;-34
2022/08/03 06:05:11;;;;;;;;;;;;;;;;;;5017693;28;20321;-32
2022/08/03 06:07:37;;;;;;;;;;;;;;;;;;5016963;28;19972;-31
2022/08/03 06:10:03;;;;;;;;;;;;;;;;;;5017007;28;20005;-34
2022/08/03 06:12:29;;;;;;;;;;;;;;;;;;5016809;28;19917;-32
2022/08/03 06:14:55;;;;;;;;;;;;;;;;;;5017089;28;20251;-35
2022/08/03 06:17:21;;;;;;;;;;;;;;;;;;5017292;28;20012;-33
2022/08/03 06:19:47;;;;;;;;;;;;;;;;;;5016793;28;19922;-32
2022/08/03 06:22:13;;;;;;;;;;;;;;;;;;5016507;28;20226;-32
2022/08/03 06:24:39;;;;;;;;;;;;;;;;;;5016518;28;19914;-32
2022/08/03 06:27:05;;;;;;;;;;;;;;;;;;5016452;28;20355;-34
2022/08/03 06:29:31;;;;;;;;;;;;;;;;;;5016607;28;20295;-32
2022/08/03 06:31:57;;;;;;;;;;;;;;;;;;5016210;28;19967;-32
2022/08/03 06:34:23;;;;;;;;;;;;;;;;;;5016252;28;20272;-33
2022/08/03 06:36:50;;;;;;;;;;;;;;;;;;5016252;28;19921;-33
2022/08/03 06:39:16;;;;;;;;;;;;;;;;;;5016338;28;19909;-34
2022/08/03 06:41:42;;;;;;;;;;;;;;;;;;5016263;28;19913;-34
2022/08/03 06:44:08;;;;;;;;;;;;;;;;;;5016094;28;19920;-33
2022/08/03 06:46:34;;;;;;;;;;;;;;;;;;5016417;28;19914;-34
2022/08/03 06:49:00;;;;;;;;;;;;;;;;;;5016098;28;19913;-33
2022/08/03 06:51:26;;;;;;;;;;;;;;;;;;5016109;28;19971;-35
2022/08/03 06:53:52;;;;;;;;;;;;;;;;;;5015498;28;20363;-32
2022/08/03 06:56:19;;;;;;;;;;;;;;;;;;5016096;28;19918;-33
2022/08/03 06:58:46;;;;;;;;;;;;;;;;;;5015943;28;19909;-32
2022/08/03 07:01:12;;;;;;;;;;;;;;;;;;5015947;28;19920;-33
2022/08/03 07:03:39;;;;;;;;;;;;;;;;;;5015637;28;19921;-32
2022/08/03 07:06:05;;;;;;;;;;;;;;;;;;5015810;28;19913;-32
2022/08/03 07:08:31;;;;;;;;;;;;;;;;;;5016064;28;19976;-32
2022/08/03 07:10:57;;;;;;;;;;;;;;;;;;5015710;28;19913;-33
2022/08/03 07:13:23;;;;;;;;;;;;;;;;;;5015677;28;20403;-33
2022/08/03 07:15:49;;;;;;;;;;;;;;;;;;5015684;28;20313;-34
2022/08/03 07:18:15;;;;;;;;;;;;;;;;;;5015803;28;20321;-33
2022/08/03 07:20:41;;;;;;;;;;;;;;;;;;5015960;28;19921;-31
2022/08/03 07:23:08;;;;;;;;;;;;;;;;;;5015555;28;19913;-32
2022/08/03 07:25:34;;;;;;;;;;;;;;;;;;5015599;28;19921;-31
2022/08/03 07:28:00;;;;;;;;;;;;;;;;;;5015423;28;19913;-31
2022/08/03 07:30:26;;;;;;;;;;;;;;;;;;5015557;28;20209;-31
2022/08/03 07:32:52;;;;;;;;;;;;;;;;;;5015640;28;19913;-31
2022/08/03 07:35:18;;;;;;;;;;;;;;;;;;5015448;28;19909;-31
2022/08/03 07:37:44;;;;;;;;;;;;;;;;;;5015256;28;19921;-31
2022/08/03 07:40:10;;;;;;;;;;;;;;;;;;5015349;28;19968;-32
2022/08/03 07:42:36;;;;;;;;;;;;;;;;;;5015270;28;20238;-32
2022/08/03 07:45:02;;;;;;;;;;;;;;;;;;5015308;28;19916;-32
2022/08/03 07:47:28;;;;;;;;;;;;;;;;;;5014135;28;19919;-33
2022/08/03 07:49:54;;;;;;;;;;;;;;;;;;5015160;28;19921;-34
2022/08/03 07:55:05;;;;;;;;;;;;;;;;;;5015328;28;19984;-31
2022/08/03 07:57:31;;;;;;;;;;;;;;;;;;5015419;28;20329;-35
2022/08/03 07:59:57;;;;;;;;;;;;;;;;;;5015165;28;19917;-30
2022/08/03 08:02:23;;;;;;;;;;;;;;;;;;5014734;28;20265;-33
2022/08/03 08:04:49;;;;;;;;;;;;;;;;;;5015232;28;19913;-34
2022/08/03 08:07:15;;;;;;;;;;;;;;;;;;5018754;28;19913;-32
2022/08/03 08:09:41;;;;;;;;;;;;;;;;;;5019341;28;19909;-32
2022/08/03 08:12:07;;;;;;;;;;;;;;;;;;5018953;28;20348;-31
2022/08/03 08:14:33;;;;;;;;;;;;;;;;;;5019763;28;19924;-30
2022/08/03 08:16:59;;;;;;;;;;;;;;;;;;5019158;28;20000;-31
2022/08/03 08:19:25;;;;;;;;;;;;;;;;;;5019095;28;19971;-32
2022/08/03 08:21:51;;;;;;;;;;;;;;;;;;5018918;28;19953;-32
2022/08/03 08:24:17;;;;;;;;;;;;;;;;;;5019170;28;20229;-31
2022/08/03 08:26:43;;;;;;;;;;;;;;;;;;5018823;28;19958;-31
2022/08/03 08:29:09;;;;;;;;;;;;;;;;;;5017843;28;19914;-34
2022/08/03 08:31:35;;;;;;;;;;;;;;;;;;5017932;28;20463;-31
2022/08/03 08:34:06;;;;;;;;;;;;;;;;;;5018736;28;19913;-31
2022/08/03 08:36:32;;;;;;;;;;;;;;;;;;5018591;28;19917;-32
2022/08/03 08:38:58;;;;;;;;;;;;;;;;;;5017699;28;19956;-32
2022/08/03 08:41:24;;;;;;;;;;;;;;;;;;5018610;28;20364;-34
2022/08/03 08:43:50;;;;;;;;;;;;;;;;;;5019027;28;19925;-33
2022/08/03 08:46:16;;;;;;;;;;;;;;;;;;5019352;28;19921;-31
2022/08/03 08:48:42;;;;;;;;;;;;;;;;;;5018513;28;20297;-31
2022/08/03 08:51:08;;;;;;;;;;;;;;;;;;5018332;28;19936;-32
2022/08/03 08:53:34;;;;;;;;;;;;;;;;;;5018594;28;19914;-31
2022/08/03 08:56:00;;;;;;;;;;;;;;;;;;5018617;28;19914;-31
2022/08/03 08:58:26;;;;;;;;;;;;;;;;;;5018469;28;20363;-32
2022/08/03 09:00:52;;;;;;;;;;;;;;;;;;5018834;28;19917;-31
2022/08/03 09:03:18;;;;;;;;;;;;;;;;;;5018020;28;20008;-33
2022/08/03 09:05:44;;;;;;;;;;;;;;;;;;5018207;28;19928;-32
2022/08/03 09:08:10;;;;;;;;;;;;;;;;;;5018225;28;19974;-32
2022/08/03 09:10:36;;;;;;;;;;;;;;;;;;5018353;28;19913;-31
2022/08/03 09:13:02;;;;;;;;;;;;;;;;;;5018181;28;19913;-31
2022/08/03 09:15:30;;;;;;;;;;;;;;;;;;5018559;28;19953;-31
2022/08/03 09:17:56;;;;;;;;;;;;;;;;;;5017351;28;19928;-34
2022/08/03 09:20:22;;;;;;;;;;;;;;;;;;5017918;28;20304;-34
2022/08/03 09:22:47;;;;;;;;;;;;;;;;;;5017752;28;20008;-32
2022/08/03 09:25:13;;;;;;;;;;;;;;;;;;5017775;28;19924;-31
2022/08/03 09:27:39;;;;;;;;;;;;;;;;;;5016666;28;19924;-33
2022/08/03 09:30:05;;;;;;;;;;;;;;;;;;5017837;28;19933;-32
2022/08/03 09:32:31;;;;;;;;;;;;;;;;;;5017450;28;19917;-31
2022/08/03 09:34:57;;;;;;;;;;;;;;;;;;5017406;28;19959;-33
2022/08/03 09:37:24;;;;;;;;;;;;;;;;;;5017239;28;20356;-32
2022/08/03 09:39:50;;;;;;;;;;;;;;;;;;5017721;28;19913;-33
2022/08/03 09:42:16;;;;;;;;;;;;;;;;;;5017308;28;20018;-32
2022/08/03 09:44:42;;;;;;;;;;;;;;;;;;5018098;28;19967;-33
2022/08/03 09:47:11;;;;;;;;;;;;;;;;;;5017573;28;20015;-32
2022/08/03 09:49:37;;;;;;;;;;;;;;;;;;5017264;28;20005;-34
2022/08/03 09:52:03;;;;;;;;;;;;;;;;;;5017137;28;20320;-32
2022/08/03 09:54:29;;;;;;;;;;;;;;;;;;5017136;28;19920;-34
2022/08/03 09:56:55;;;;;;;;;;;;;;;;;;5017244;28;19917;-32
2022/08/03 09:59:21;;;;;;;;;;;;;;;;;;5017012;28;19975;-36
2022/08/03 10:01:47;;;;;;;;;;;;;;;;;;5016914;28;19913;-34
2022/08/03 10:04:13;;;;;;;;;;;;;;;;;;5016718;28;19921;-31
2022/08/03 10:06:39;;;;;;;;;;;;;;;;;;5016960;28;19917;-32
2022/08/03 10:09:06;;;;;;;;;;;;;;;;;;5015972;28;19914;-31
2022/08/03 10:11:33;;;;;;;;;;;;;;;;;;5017114;28;20298;-33
2022/08/03 10:13:59;;;;;;;;;;;;;;;;;;5016765;28;19977;-33
2022/08/03 10:16:25;;;;;;;;;;;;;;;;;;5016703;28;19913;-31
2022/08/03 10:18:51;;;;;;;;;;;;;;;;;;5015935;28;19975;-31
2022/08/03 10:21:17;;;;;;;;;;;;;;;;;;5017229;28;19914;-31
2022/08/03 10:23:43;;;;;;;;;;;;;;;;;;5016693;28;19925;-33
2022/08/03 10:26:09;;;;;;;;;;;;;;;;;;5016558;28;20016;-32
2022/08/03 10:28:35;;;;;;;;;;;;;;;;;;5016024;28;19913;-31
2022/08/03 10:31:01;;;;;;;;;;;;;;;;;;5016419;28;19955;-33
2022/08/03 10:33:27;;;;;;;;;;;;;;;;;;5016377;28;19941;-33
2022/08/03 10:35:53;;;;;;;;;;;;;;;;;;5016647;28;20373;-32
2022/08/03 10:38:19;;;;;;;;;;;;;;;;;;5016372;28;20008;-32
2022/08/03 10:40:45;;;;;;;;;;;;;;;;;;5016428;28;19916;-32
2022/08/03 10:43:12;;;;;;;;;;;;;;;;;;5016434;28;19920;-33
2022/08/03 10:45:38;;;;;;;;;;;;;;;;;;5016791;28;19913;-32
2022/08/03 10:48:04;;;;;;;;;;;;;;;;;;5016385;28;20336;-31
2022/08/03 10:50:30;;;;;;;;;;;;;;;;;;5016516;28;20237;-33
2022/08/03 10:52:56;;;;;;;;;;;;;;;;;;5016194;28;19913;-33
2022/08/03 10:58:06;;;;;;;;;;;;;;;;;;5016022;28;19929;-33
2022/08/03 11:00:32;;;;;;;;;;;;;;;;;;5016269;28;19910;-31
2022/08/03 11:02:58;;;;;;;;;;;;;;;;;;5015745;28;19927;-32
2022/08/03 11:05:24;;;;;;;;;;;;;;;;;;5016535;28;20249;-32
2022/08/03 11:07:50;;;;;;;;;;;;;;;;;;5016039;28;19921;-33
2022/08/03 11:10:16;;;;;;;;;;;;;;;;;;5016018;28;19909;-34
2022/08/03 11:12:42;;;;;;;;;;;;;;;;;;5016188;28;19920;-34
2022/08/03 11:15:08;;;;;;;;;;;;;;;;;;5015881;28;19995;-33
2022/08/03 11:17:34;;;;;;;;;;;;;;;;;;5015801;28;19921;-33
2022/08/03 11:20:00;;;;;;;;;;;;;;;;;;5015718;28;19913;-32
2022/08/03 11:22:27;;;;;;;;;;;;;;;;;;5015601;28;19964;-32
2022/08/03 11:24:55;;;;;;;;;;;;;;;;;;5014725;28;19924;-31
2022/08/03 11:27:21;;;;;;;;;;;;;;;;;;5016333;28;19913;-33
2022/08/03 11:29:47;;;;;;;;;;;;;;;;;;5015864;28;19944;-34
2022/08/03 11:32:13;;;;;;;;;;;;;;;;;;5015679;28;19933;-32
2022/08/03 11:34:39;;;;;;;;;;;;;;;;;;5015428;28;20265;-34
2022/08/03 11:37:05;;;;;;;;;;;;;;;;;;5015402;28;19921;-33
2022/08/03 11:39:31;;;;;;;;;;;;;;;;;;5015364;28;19923;-32
2022/08/03 11:41:57;;;;;;;;;;;;;;;;;;5015518;28;19996;-31
2022/08/03 11:44:23;;;;;;;;;;;;;;;;;;5014695;28;19914;-32
2022/08/03 11:46:49;;;;;;;;;;;;;;;;;;5015961;28;19959;-33
2022/08/03 11:49:15;;;;;;;;;;;;;;;;;;5015327;28;20363;-32
2022/08/03 11:51:41;;;;;;;;;;;;;;;;;;5015685;28;19936;-33
2022/08/03 11:54:06;;;;;;;;;;;;;;;;;;5015226;28;19952;-31
2022/08/03 11:56:32;;;;;;;;;;;;;;;;;;5015131;28;19940;-34
2022/08/03 11:58:59;;;;;;;;;;;;;;;;;;5015187;28;20355;-32
2022/08/03 12:01:25;;;;;;;;;;;;;;;;;;5015496;28;19914;-32
2022/08/03 12:03:51;;;;;;;;;;;;;;;;;;5015079;28;19960;-33
2022/08/03 12:06:17;;;;;;;;;;;;;;;;;;5015455;28;19949;-33
2022/08/03 12:08:43;;;;;;;;;;;;;;;;;;5014190;28;20375;-32
2022/08/03 12:11:09;;;;;;;;;;;;;;;;;;5015850;28;20336;-34
2022/08/03 12:13:35;;;;;;;;;;;;;;;;;;5015034;28;20067;-32
2022/08/03 12:16:01;;;;;;;;;;;;;;;;;;5014214;28;19968;-31
2022/08/03 12:18:27;;;;;;;;;;;;;;;;;;5015111;28;19917;-31
2022/08/03 12:20:53;;;;;;;;;;;;;;;;;;5015115;28;19914;-31
2022/08/03 12:23:19;;;;;;;;;;;;;;;;;;5014995;28;20023;-31
2022/08/03 12:25:45;;;;;;;;;;;;;;;;;;5015605;28;19914;-32
2022/08/03 12:28:11;;;;;;;;;;;;;;;;;;5015048;28;20222;-34
2022/08/03 12:30:37;;;;;;;;;;;;;;;;;;5015007;28;19948;-36
2022/08/03 12:33:03;;;;;;;;;;;;;;;;;;5013923;28;19913;-31
2022/08/03 12:35:29;;;;;;;;;;;;;;;;;;5014963;28;20021;-33
2022/08/03 12:37:57;;;;;;;;;;;;;;;;;;5015097;28;20287;-31
2022/08/03 12:40:23;;;;;;;;;;;;;;;;;;5015065;28;20000;-31
2022/08/03 12:42:49;;;;;;;;;;;;;;;;;;5014696;28;19964;-31
2022/08/03 12:45:14;;;;;;;;;;;;;;;;;;5014745;28;20341;-31
2022/08/03 12:47:40;;;;;;;;;;;;;;;;;;5014333;28;19999;-31
2022/08/03 12:50:06;;;;;;;;;;;;;;;;;;5014730;28;19913;-33
2022/08/03 12:52:32;;;;;;;;;;;;;;;;;;5015323;28;19913;-31
2022/08/03 12:54:58;;;;;;;;;;;;;;;;;;5018494;28;19999;-30
2022/08/03 12:57:24;;;;;;;;;;;;;;;;;;5018403;28;19921;-31
2022/08/03 12:59:54;;;;;;;;;;;;;;;;;;5018115;28;19920;-33
2022/08/03 13:02:20;;;;;;;;;;;;;;;;;;5017785;28;20296;-33
2022/08/03 13:04:46;;;;;;;;;;;;;;;;;;5018557;28;19913;-33
2022/08/03 13:07:14;;;;;;;;;;;;;;;;;;5017210;28;21557;-36
2022/08/03 13:09:41;;;;;;;;;;;;;;;;;;5018179;28;19910;-32
2022/08/03 13:12:08;;;;;;;;;;;;;;;;;;5017882;28;20307;-32
2022/08/03 13:14:34;;;;;;;;;;;;;;;;;;5017877;28;19921;-32
2022/08/03 13:17:00;;;;;;;;;;;;;;;;;;5017795;28;19924;-31
2022/08/03 13:19:26;;;;;;;;;;;;;;;;;;5018054;28;20344;-33
2022/08/03 13:21:52;;;;;;;;;;;;;;;;;;5018097;28;19920;-32
2022/08/03 13:24:18;;;;;;;;;;;;;;;;;;5018063;28;19940;-31
2022/08/03 13:26:44;;;;;;;;;;;;;;;;;;5017952;28;20383;-33
2022/08/03 13:29:09;;;;;;;;;;;;;;;;;;5018283;28;19914;-32
2022/08/03 13:31:36;;;;;;;;;;;;;;;;;;5017673;28;19960;-33
2022/08/03 13:34:02;;;;;;;;;;;;;;;;;;5017559;28;19921;-30
2022/08/03 13:36:27;;;;;;;;;;;;;;;;;;5017486;28;20004;-30
2022/08/03 13:38:53;;;;;;;;;;;;;;;;;;5018101;28;19914;-32
2022/08/03 13:41:19;;;;;;;;;;;;;;;;;;5017292;28;19914;-32
2022/08/03 13:43:45;;;;;;;;;;;;;;;;;;5017248;28;19913;-31
2022/08/03 13:46:11;;;;;;;;;;;;;;;;;;5017919;28;20422;-32
2022/08/03 13:48:37;;;;;;;;;;;;;;;;;;5017294;28;20266;-31
2022/08/03 13:51:03;;;;;;;;;;;;;;;;;;5017557;28;19910;-35
2022/08/03 13:53:29;;;;;;;;;;;;;;;;;;5017412;28;19921;-32
2022/08/03 13:55:55;;;;;;;;;;;;;;;;;;5017753;28;20261;-31
2022/08/03 13:58:21;;;;;;;;;;;;;;;;;;5017342;28;19939;-32
2022/08/03 14:00:47;;;;;;;;;;;;;;;;;;5017584;28;19913;-32
2022/08/03 14:03:13;;;;;;;;;;;;;;;;;;5016549;28;20008;-34
2022/08/03 14:05:39;;;;;;;;;;;;;;;;;;5016984;28;19972;-31
2022/08/03 14:08:05;;;;;;;;;;;;;;;;;;5016989;28;19913;-32
2022/08/03 14:10:31;;;;;;;;;;;;;;;;;;5017226;28;19924;-32
2022/08/03 14:12:59;;;;;;;;;;;;;;;;;;5017110;28;19913;-31
2022/08/03 14:15:25;;;;;;;;;;;;;;;;;;5016762;28;19917;-31
2022/08/03 14:17:51;;;;;;;;;;;;;;;;;;5016825;28;19979;-33
2022/08/03 14:20:17;;;;;;;;;;;;;;;;;;5017377;28;19909;-33
2022/08/03 14:22:43;;;;;;;;;;;;;;;;;;5016699;28;20356;-31
2022/08/03 14:25:09;;;;;;;;;;;;;;;;;;5016678;28;19920;-31
2022/08/03 14:27:35;;;;;;;;;;;;;;;;;;5016685;28;19924;-32
2022/08/03 14:30:02;;;;;;;;;;;;;;;;;;5016627;28;20254;-32
2022/08/03 14:32:28;;;;;;;;;;;;;;;;;;5016450;28;20300;-33
2022/08/03 14:34:54;;;;;;;;;;;;;;;;;;5016579;28;19909;-32
2022/08/03 14:37:20;;;;;;;;;;;;;;;;;;5016582;28;19917;-32
2022/08/03 14:39:46;;;;;;;;;;;;;;;;;;5016717;28;19914;-32
2022/08/03 14:42:12;;;;;;;;;;;;;;;;;;5016534;28;19917;-32
2022/08/03 14:44:38;;;;;;;;;;;;;;;;;;5016123;28;19968;-33
2022/08/03 14:47:04;;;;;;;;;;;;;;;;;;5016242;28;20295;-33
2022/08/03 14:49:30;;;;;;;;;;;;;;;;;;5016253;28;19917;-32
2022/08/03 14:51:56;;;;;;;;;;;;;;;;;;5016148;28;19909;-32
2022/08/03 14:54:22;;;;;;;;;;;;;;;;;;5016136;28;19917;-31
2022/08/03 14:56:48;;;;;;;;;;;;;;;;;;5016020;28;19913;-33
2022/08/03 14:59:14;;;;;;;;;;;;;;;;;;5015105;28;19944;-32
2022/08/03 15:01:40;;;;;;;;;;;;;;;;;;5015983;28;19921;-32
2022/08/03 15:04:06;;;;;;;;;;;;;;;;;;5015740;28;20352;-32
2022/08/03 15:06:32;;;;;;;;;;;;;;;;;;5016687;28;20000;-34
2022/08/03 15:08:58;;;;;;;;;;;;;;;;;;5014937;28;19955;-33
2022/08/03 15:11:24;;;;;;;;;;;;;;;;;;5015808;28;19925;-32
2022/08/03 15:13:50;;;;;;;;;;;;;;;;;;5015673;28;20289;-31
2022/08/03 15:16:16;;;;;;;;;;;;;;;;;;5015178;28;19945;-33
2022/08/03 15:18:42;;;;;;;;;;;;;;;;;;5015774;28;19917;-32
2022/08/03 15:21:08;;;;;;;;;;;;;;;;;;5015710;28;19910;-31
2022/08/03 15:23:34;;;;;;;;;;;;;;;;;;5015620;28;19917;-32
2022/08/03 15:26:00;;;;;;;;;;;;;;;;;;5015588;28;19913;-34
2022/08/03 15:28:26;;;;;;;;;;;;;;;;;;5014748;28;20348;-32
2022/08/03 15:30:52;;;;;;;;;;;;;;;;;;5015594;28;20012;-36
2022/08/03 15:33:18;;;;;;;;;;;;;;;;;;5015827;28;20252;-32
2022/08/03 15:35:46;;;;;;;;;;;;;;;;;;5015479;28;20007;-32
2022/08/03 15:38:12;;;;;;;;;;;;;;;;;;5015380;28;19972;-32
2022/08/03 15:40:38;;;;;;;;;;;;;;;;;;5015659;28;19913;-33
2022/08/03 15:43:04;;;;;;;;;;;;;;;;;;5015457;28;20317;-36
2022/08/03 15:45:30;;;;;;;;;;;;;;;;;;5015353;28;19924;-31
2022/08/03 15:47:56;;;;;;;;;;;;;;;;;;5015319;28;20328;-32
2022/08/03 15:50:22;;;;;;;;;;;;;;;;;;5015304;28;20303;-33
2022/08/03 15:52:48;;;;;;;;;;;;;;;;;;5015493;28;20005;-32
2022/08/03 15:55:14;;;;;;;;;;;;;;;;;;5015122;28;19975;-32
2022/08/03 15:57:40;;;;;;;;;;;;;;;;;;5015006;28;19921;-31
2022/08/03 16:00:07;;;;;;;;;;;;;;;;;;5015057;28;20311;-33
2022/08/03 16:02:33;;;;;;;;;;;;;;;;;;5014835;28;19983;-31
2022/08/03 16:04:59;;;;;;;;;;;;;;;;;;5015258;28;19922;-33
2022/08/03 16:07:45;;;;;;;;;;;;;;;;;;5015359;28;19914;-32
2022/08/03 16:10:11;;;;;;;;;;;;;;;;;;5015312;28;19914;-31
2022/08/03 16:12:37;;;;;;;;;;;;;;;;;;5014880;28;19909;-31
2022/08/03 16:15:03;;;;;;;;;;;;;;;;;;5015016;28;19921;-35
2022/08/03 16:17:28;;;;;;;;;;;;;;;;;;5015010;28;19918;-31
2022/08/03 16:19:54;;;;;;;;;;;;;;;;;;5015275;28;19917;-30
2022/08/03 16:22:20;;;;;;;;;;;;;;;;;;5014844;28;19921;-31
2022/08/03 16:24:47;;;;;;;;;;;;;;;;;;5015151;28;19924;-33
2022/08/03 16:27:13;;;;;;;;;;;;;;;;;;5016706;28;19913;-31
2022/08/03 16:29:39;;;;;;;;;;;;;;;;;;5018839;28;19917;-32
2022/08/03 16:32:08;;;;;;;;;;;;;;;;;;5019214;28;19913;-33
2022/08/03 16:34:34;;;;;;;;;;;;;;;;;;5018671;28;19913;-32
2022/08/03 16:37:00;;;;;;;;;;;;;;;;;;5018623;28;20233;-33
2022/08/03 16:39:26;;;;;;;;;;;;;;;;;;5018605;28;19925;-32
2022/08/03 16:41:52;;;;;;;;;;;;;;;;;;5018566;28;19909;-31
2022/08/03 16:44:18;;;;;;;;;;;;;;;;;;5018489;28;19925;-35
2022/08/03 16:46:44;;;;;;;;;;;;;;;;;;5019080;28;19917;-35
2022/08/03 16:49:10;;;;;;;;;;;;;;;;;;5018429;28;19921;-31
2022/08/03 16:51:38;;;;;;;;;;;;;;;;;;5017412;28;19909;-30